»·PEaware :: QXE9864 KRDD-KSFO

QXE9864 :: KRDD-KSFO

FLIGHT INFORMATION

Flight Status: Arrived
Operator:
Horizon Air
More flights by this operator :: More flights under this callsign
Pilot: Anonymous 10623 (10623)
Aircraft: DEHAVILLAND DASH 8 400
(DH8D)
More flights by this aircraft type
Origin: KRDD Redding Mun
United States
Destination: KSFO San Francisco Intl
United States
More flights between these airports :: More routes between these airports
Route: +KENDL4 RBL ENI PYE3
File this flight plan on PilotEdge
Remarks:
Altitude:
(Current/Filed)
19,000ft
Speed:
(Current/Filed)
325kts
Departed: 15-Sep-20 10:41 AM
Arrived: 15-Sep-20 11:36 AM
Distance/Time
Traveled:
174nm/0:55
Distance/Time
To Go:
Arrived

Flight Plot

Page will automatically refresh every two minutes.

Flight plan parsing failed; only flown route is shown


Map Options




Map Legend


Flown Route
Filed Route
Departure Airport
Arrival Airport
Navaid (VOR, NDB)
Fix

Horizontal Profiles

Position Reports

Time Latitude Longitude Heading Altitude Ground
Speed
15-Sep-20 10:08 40.505096 -122.299163 316 510ft 0kts
15-Sep-20 10:09 40.505096 -122.299163 316 510ft 0kts
15-Sep-20 10:10 40.505096 -122.299163 316 510ft 0kts
15-Sep-20 10:11 40.505096 -122.299163 316 510ft 0kts
15-Sep-20 10:12 40.505096 -122.299163 316 510ft 0kts
15-Sep-20 10:13 40.505096 -122.299163 316 510ft 0kts
15-Sep-20 10:14 40.505096 -122.299163 316 510ft 0kts
15-Sep-20 10:15 40.505096 -122.299163 316 510ft 0kts
15-Sep-20 10:16 40.505096 -122.299163 316 510ft 0kts
15-Sep-20 10:17 40.505096 -122.299163 316 510ft 0kts
15-Sep-20 10:18 40.505096 -122.299163 316 510ft 0kts
15-Sep-20 10:19 40.505096 -122.299163 316 510ft 0kts
15-Sep-20 10:20 40.505096 -122.299163 316 510ft 0kts
15-Sep-20 10:21 40.505096 -122.299163 316 510ft 0kts
15-Sep-20 10:22 40.505096 -122.299163 316 510ft 0kts
15-Sep-20 10:23 40.505096 -122.299163 316 510ft 0kts
15-Sep-20 10:24 40.505096 -122.299163 316 510ft 0kts
15-Sep-20 10:25 40.505096 -122.299163 316 510ft 0kts
15-Sep-20 10:26 40.505096 -122.299163 316 510ft 0kts
15-Sep-20 10:27 40.505096 -122.299163 316 510ft 0kts
15-Sep-20 10:28 40.505096 -122.299163 316 510ft 0kts
15-Sep-20 10:29 40.505096 -122.299163 316 510ft 0kts
15-Sep-20 10:30 40.505096 -122.299163 316 510ft 0kts
15-Sep-20 10:31 40.505095 -122.299161 316 510ft 0kts
15-Sep-20 10:32 40.505095 -122.299161 316 510ft 0kts
15-Sep-20 10:33 40.504947 -122.299003 92 510ft 7kts
15-Sep-20 10:34 40.504941 -122.298848 93 510ft 0kts
15-Sep-20 10:35 40.507497 -122.298384 40 510ft 16kts
15-Sep-20 10:36 40.511875 -122.296321 1 510ft 19kts
15-Sep-20 10:37 40.518305 -122.296291 5 510ft 19kts
15-Sep-20 10:38 40.520159 -122.296046 50 510ft 0kts
15-Sep-20 10:39 40.519994 -122.294909 158 510ft 12kts
15-Sep-20 10:40 40.501974 -122.294864 181 816ft 130kts
15-Sep-20 10:41 40.473520 -122.330304 239 2644ft 179kts
15-Sep-20 10:42 40.437326 -122.366839 177 5112ft 190kts
15-Sep-20 10:43 40.386824 -122.354975 165 7811ft 179kts
15-Sep-20 10:44 40.340841 -122.336475 163 10079ft 173kts
15-Sep-20 10:45 40.289686 -122.315193 164 11269ft 209kts
15-Sep-20 10:46 40.233508 -122.291892 165 12761ft 215kts
15-Sep-20 10:47 40.176254 -122.268273 165 14131ft 221kts
15-Sep-20 10:48 40.117300 -122.245472 177 15338ft 224kts
15-Sep-20 10:49 40.061136 -122.277649 211 16509ft 228kts
15-Sep-20 10:50 40.009241 -122.326544 215 17566ft 232kts
15-Sep-20 10:51 39.957888 -122.378568 216 18518ft 237kts
15-Sep-20 10:52 39.904749 -122.432285 216 19101ft 253kts
15-Sep-20 10:53 39.846310 -122.491064 216 19132ft 279kts
15-Sep-20 10:54 39.783585 -122.553837 216 19132ft 297kts
15-Sep-20 10:55 39.717399 -122.619945 216 19133ft 307kts
15-Sep-20 10:56 39.648718 -122.688348 216 19134ft 313kts
15-Sep-20 10:57 39.579726 -122.756942 216 19136ft 316kts
15-Sep-20 10:58 39.510154 -122.825928 216 19138ft 317kts
15-Sep-20 10:59 39.440437 -122.894760 216 19143ft 317kts
15-Sep-20 11:00 39.370319 -122.963958 216 19145ft 317kts
15-Sep-20 11:01 39.300446 -123.032628 216 19147ft 318kts
15-Sep-20 11:03 39.230879 -123.100879 216 19146ft 318kts
15-Sep-20 11:04 39.161121 -123.169128 216 19146ft 318kts
15-Sep-20 11:05 39.092033 -123.236566 215 19147ft 317kts
15-Sep-20 11:06 39.009389 -123.254269 168 19148ft 321kts
15-Sep-20 11:07 38.924781 -123.220597 164 19147ft 323kts
15-Sep-20 11:08 38.840316 -123.184598 164 19149ft 324kts
15-Sep-20 11:09 38.755765 -123.149043 164 19149ft 324kts
15-Sep-20 11:10 38.671665 -123.113732 164 18349ft 319kts
15-Sep-20 11:11 38.591084 -123.080059 164 17298ft 315kts
15-Sep-20 11:12 38.509823 -123.046210 164 16190ft 310kts
15-Sep-20 11:13 38.428977 -123.012474 164 15133ft 306kts
15-Sep-20 11:14 38.349028 -122.979238 164 14166ft 301kts
15-Sep-20 11:15 38.270754 -122.946822 163 13254ft 297kts
15-Sep-20 11:16 38.193229 -122.914713 163 12988ft 293kts
15-Sep-20 11:16 38.129121 -122.888157 163 12980ft 289kts
15-Sep-20 11:18 38.040703 -122.851147 162 12985ft 291kts
15-Sep-20 11:19 37.964126 -122.817723 162 12979ft 300kts
15-Sep-20 11:19 37.899973 -122.789751 162 12225ft 294kts
15-Sep-20 11:20 37.824259 -122.756983 161 11114ft 287kts
15-Sep-20 11:21 37.755836 -122.718076 144 10998ft 268kts
15-Sep-20 11:23 37.689448 -122.653816 144 10995ft 267kts
15-Sep-20 11:23 37.652637 -122.593832 114 10731ft 268kts
15-Sep-20 11:24 37.626909 -122.507393 114 8887ft 264kts
15-Sep-20 11:25 37.593941 -122.427676 123 7037ft 255kts
15-Sep-20 11:26 37.558182 -122.352058 123 5258ft 249kts
15-Sep-20 11:27 37.525426 -122.283941 123 5002ft 220kts
15-Sep-20 11:28 37.493373 -122.218424 123 4993ft 224kts
15-Sep-20 11:29 37.479986 -122.148010 54 3943ft 230kts
15-Sep-20 11:30 37.530639 -122.155652 297 3034ft 204kts
15-Sep-20 11:31 37.553763 -122.217622 295 2458ft 200kts
15-Sep-20 11:32 37.577009 -122.275607 297 1491ft 166kts
15-Sep-20 11:33 37.595522 -122.321339 302 722ft 122kts
15-Sep-20 11:34 37.610758 -122.355759 298 126ft 104kts
15-Sep-20 11:35 37.619419 -122.376702 298 20ft 16kts
15-Sep-20 11:36 37.617531 -122.379378 179 20ft 10kts
15-Sep-20 11:37 37.616047 -122.381367 316 20ft 3kts
15-Sep-20 11:38 37.616551 -122.381252 12 20ft 0kts
15-Sep-20 11:39 37.616552 -122.381252 12 20ft 0kts
15-Sep-20 11:40 37.616552 -122.381252 12 20ft 0kts
15-Sep-20 11:41 37.616552 -122.381252 12 20ft 0kts
15-Sep-20 11:42 37.616552 -122.381252 12 20ft 0kts
15-Sep-20 11:43 37.616552 -122.381252 12 20ft 0kts

Navigation Log

Ident Type
Flight plan parsing failed, navigation log unavailable